Sedgwick Reserve, California Weather observations

Data are for 10 minute period ending at time listed.
 Day   Time   Solar   Ave.   Ave.  Ave.  Vector  Max.   Baro.   Total    
  of    of     Rad.   Air    Rel.  Wind   Wind   Wind  Press.  Precip.   
Year   Day            Temp.  Hum.  Speed  Dir.   Gust                    
2026   (PST)  Kw/m2    F      %     mph   deg.    mph    mb.     in.     
-------------------------------------------------------------------------
 126   15:20   0.65   73.6    49    8.4   290    15.5   975.6    0.00 
 126   15:30   0.62   74.0    49    9.6   307    19.6   975.6    0.00 
 126   15:40   0.59   73.3    50   10.2   304    17.8   975.5    0.00 
 126   15:50   0.56   73.2    50    8.4   292    15.4   975.5    0.00 
 126   16:00   0.53   73.1    50    8.8   296    16.8   975.5    0.00 
 126   16:10   0.50   73.3    50    8.7   310    17.2   975.6    0.00 
 126   16:20   0.46   71.7    52   10.5   310    19.0   975.7    0.00 
 126   16:30   0.43   71.5    53    8.8   298    18.7   975.7    0.00 
 126   16:40   0.40   70.4    54   11.4   300    18.5   975.7    0.00 
 126   16:50   0.36   69.4    56   11.4   297    19.4   975.7    0.00 
 126   17:00   0.33   68.8    57    8.7   287    19.2   975.7    0.00 
 126   17:10   0.29   68.3    58   10.2   287    16.9   975.8    0.00 
 126   17:20   0.26   67.3    60   11.7   283    19.1   975.8    0.00 
 126   17:30   0.22   66.3    62   11.6   284    20.2   975.9    0.00 
 126   17:40   0.19   66.0    62    7.9   280    14.1   976.0    0.00 
 126   17:50   0.16   66.0    62    4.9   281    10.2   976.1    0.00 
 126   18:00   0.13   65.3    64    5.2   286    11.4   976.3    0.00 
 126   18:10   0.10   64.0    66    8.4   298    15.6   976.3    0.00 
 126   18:20   0.07   62.9    68    6.1   295    11.8   976.3    0.00 
 126   18:30   0.04   61.7    70    7.4   288    13.2   976.4    0.00 
 126   18:40   0.02   60.9    72    4.8   275     8.1   976.5    0.00 
 126   18:50   0.01   60.2    73    5.2   266     7.9   976.5    0.00 
 126   19:00   0.00   59.6    74    3.4   272     6.5   976.6    0.00 
 126   19:10   0.00   58.9    75    3.6   266     6.6   976.6    0.00 
 126   19:20   0.00   58.3    76    2.7   269     4.6   976.7    0.00 
 126   19:30   0.00   58.0    77    2.1   275     4.2   976.8    0.00 
 126   19:40   0.00   57.6    78    1.9   290     3.5   977.0    0.00 
 126   19:50   0.00   57.0    80    2.1   284     3.1   977.1    0.00 
 126   20:00   0.00   55.9    82    2.6   273     3.3   977.2    0.00 
 126   20:10   0.00   55.3    83    2.3   284     3.2   977.3    0.00 
 126   20:20   0.00   55.0    84    1.9   290     2.8   977.3    0.00 
 126   20:30   0.00   54.0    86    0.7    36     1.7   977.3    0.00 
 126   20:40   0.00   53.3    86    0.1   185     0.8   977.4    0.00 
 126   20:50   0.00   53.2    87    0.0    31     0.9   977.5    0.00 
 126   21:00   0.00   52.0    88    0.2    28     1.3   977.5    0.00 
 126   21:10   0.00   51.3    90    0.6    32     2.2   977.6    0.00 
 126   21:20   0.00   50.9    91    2.5    15     3.7   977.5    0.00 
 126   21:30   0.00   50.2    92    1.9     8     3.4   977.5    0.00 
 126   21:40   0.00   50.4    92    1.6    11     2.7   977.5    0.00 
 126   21:50   0.00   50.2    93    1.0     1     2.8   977.5    0.00 
 126   22:00   0.00   49.6    93    0.3   270     1.4   977.6    0.00 
 126   22:10   0.00   49.4    93    1.4   332     3.1   977.5    0.00 
 126   22:20   0.00   48.3    94    3.7     9     4.7   977.5    0.00 
 126   22:30   0.00   48.1    95    2.0   346     4.0   977.4    0.00 
 126   22:40   0.00   48.8    95    0.7   336     2.1   977.4    0.00 
 126   22:50   0.00   48.1    95    2.4     1     3.5   977.4    0.00 
 126   23:00   0.00   47.8    95    1.5   246     2.4   977.3    0.00 
 126   23:10   0.00   48.1    95    2.4   310     4.1   977.2    0.00 
 126   23:20   0.00   47.2    96    3.7    10     4.5   977.2    0.00 
 126   23:30   0.00   47.4    96    1.6   355     3.6   977.2    0.00 
 126   23:40   0.00   47.4    96    0.7   264     1.3   977.2    0.00 
 126   23:50   0.00   47.3    96    0.4   277     1.8   977.2    0.00 
 127    0:00   0.00   47.0    96    0.4    20     1.8   977.2    0.00 
 127    0:10   0.00   46.0    97    2.9    12     4.5   977.1    0.00 
 127    0:20   0.00   46.6    97    1.0   334     2.1   977.0    0.00 
 127    0:30   0.00   46.9    98    1.9   291     3.4   977.0    0.00 
 127    0:40   0.00   46.7    97    2.1    21     3.4   976.9    0.00 
 127    0:50   0.00   46.2    97    1.0   354     1.9   976.8    0.00 
 127    1:00   0.00   46.3    98    0.8   228     1.7   976.7    0.00 
 127    1:10   0.00   46.1    98    1.6    20     3.1   976.6    0.00 
 127    1:20   0.00   46.5    98    0.7   315     1.8   976.5    0.00 
 127    1:30   0.00   46.9    98    3.4   271     4.5   976.5    0.00 
 127    1:40   0.00   47.1    98    2.1   330     3.7   976.5    0.00 
 127    1:50   0.00   47.0    99    2.0     9     3.4   976.3    0.00 
 127    2:00   0.00   47.6    99    0.5   190     1.4   976.2    0.00 
 127    2:10   0.00   47.8    99    1.2   339     2.6   976.2    0.00 
 127    2:20   0.00   47.3    99    1.9    10     4.1   976.1    0.00 
 127    2:30   0.00   47.8   100    0.9    19     1.5   976.1    0.00 
 127    2:40   0.00   47.7   100    0.7     7     2.0   976.0    0.00 
 127    2:50   0.00   47.8   100    0.2    43     1.1   975.9    0.00 
 127    3:00   0.00   48.1   100    0.1    64     1.4   975.9    0.00 
 127    3:10   0.00   48.0   100    0.9    37     2.2   975.9    0.00 
 127    3:20   0.00   47.8   100    1.7    14     2.8   975.8    0.00 
 127    3:30   0.00   47.6   100    1.5     8     2.6   975.8    0.00 
 127    3:40   0.00   47.4   100    1.7    29     3.0   975.7    0.00 
 127    3:50   0.00   46.7   100    2.4    18     3.9   975.7    0.00 
 127    4:00   0.00   46.2   100    1.6    13     2.3   975.8    0.00 
 127    4:10   0.00   45.5   100    2.2    11     3.4   975.7    0.00 
 127    4:20   0.00   45.0   100    1.4   354     3.1   975.7    0.00 
 127    4:30   0.00   44.7   100    0.6    22     1.8   975.6    0.00 
 127    4:40   0.00   44.2   100    0.6    22     2.4   975.5    0.00 
 127    4:50   0.00   44.0   100    0.0     0     0.0   975.5    0.00 
 127    5:00   0.00   43.4   100    0.0     0     0.0   975.5    0.00 
 127    5:10   0.00   43.0   100    0.8    11     1.5   975.6    0.00 
 127    5:20   0.01   42.5   100    1.6    15     2.7   975.6    0.00 
 127    5:30   0.01   42.5   100    1.2   325     1.8   975.8    0.00 
 127    5:40   0.02   42.5   100    0.0   287     0.4   975.9    0.00 
 127    5:50   0.03   43.2   100    0.9   359     2.4   976.0    0.00 
 127    6:00   0.09   43.4   100    0.9    11     3.0   976.1    0.00 
 127    6:10   0.14   45.1   100    0.5    32     1.5   976.1    0.00 
 127    6:20   0.17   45.9   100    0.5    59     1.5   976.1    0.00 
 127    6:30   0.21   48.1   100    0.4   158     1.6   976.1    0.00 
 127    6:40   0.24   49.6   100    0.4    84     1.8   976.2    0.00 
 127    6:50   0.28   51.3   100    1.2   114     2.1   976.2    0.00 
 127    7:00   0.31   51.8   100    0.5   146     1.8   976.3    0.00 
 127    7:10   0.35   53.6    99    1.2   115     2.9   976.3    0.00 
 127    7:20   0.39   53.7    97    1.4   160     3.2   976.3    0.00 
 127    7:30   0.42   55.6    94    2.2   116     4.2   976.3    0.00 
 127    7:40   0.45   56.9    88    2.0   126     3.4   976.2    0.00 
 127    7:50   0.48   58.5    84    1.7   157     4.2   976.3    0.00 
 127    8:00   0.52   60.0    79    2.0   162     4.5   976.2    0.00 
 127    8:10   0.55   61.7    74    2.2   147     5.6   976.2    0.00 
 127    8:20   0.58   63.2    70    2.6   152     4.4   976.1    0.00 
 127    8:30   0.61   63.9    69    1.6   179     4.9   976.0    0.00 
 127    8:40   0.64   65.8    65    2.6   142     5.6   975.9    0.00 
 127    8:50   0.67   67.2    63    3.7   136     6.9   975.9    0.00 
 127    9:00   0.70   67.8    62    3.4   150     7.7   975.9    0.00 
 127    9:10   0.72   68.6    60    3.2   170     6.5   975.8    0.00 
 127    9:20   0.75   69.7    58    3.6   153     7.3   975.8    0.00 
 127    9:30   0.77   70.9    56    4.6   194     7.0   975.8    0.00 
 127    9:40   0.79   70.5    58    5.0   203     7.2   975.7    0.00 
 127    9:50   0.81   71.0    58    5.1   206     8.1   975.7    0.00 
 127   10:00   0.83   71.7    57    3.5   220     9.1   975.7    0.00 
 127   10:10   0.85   72.5    56    4.6   235     8.5   975.6    0.00 
 127   10:20   0.86   73.0    56    5.8   232    10.2   975.6    0.00 
 127   10:30   0.88   74.1    53    6.5   252    11.3   975.5    0.00 
 127   10:40   0.89   74.8    52    6.7   244    10.4   975.5    0.00 
 127   10:50   0.90   76.0    50    6.4   263    11.3   975.5    0.00 
 127   11:00   0.91   76.8    49    6.2   236    13.4   975.4    0.00 
 127   11:10   0.92   76.5    49    8.3   246    13.3   975.4    0.00 
 127   11:20   0.93   77.5    47    7.7   255    11.8   975.3    0.00 
 127   11:30   0.90   77.8    46   10.4   261    17.0   975.2    0.00 
 127   11:40   0.93   78.6    47    8.9   280    15.3   975.1    0.00 
 127   11:50   0.93   79.3    47    8.7   262    15.2   975.0    0.00 
 127   12:00   0.94   81.5    44    6.3   283    14.5   974.9    0.00 
 127   12:10   0.94   80.9    44    7.8   275    15.5   974.8    0.00 
 127   12:20   0.94   83.5    41    5.0   306     9.2   974.8    0.00 
 127   12:30   0.93   84.1    41    7.4   305    13.6   974.7    0.00 
 127   12:40   0.93   83.0    41    9.7   281    16.4   974.7    0.00 
 127   12:50   0.92   82.4    42    9.2   279    17.8   974.6    0.00 
 127   13:00   0.91   81.4    43   11.3   269    19.6   974.5    0.00 
 127   13:10   0.90   82.7    43    8.7   287    16.8   974.5    0.00 
 127   13:20   0.90   84.2    42    9.5   314    16.5   974.5    0.00 
 127   13:30   0.88   82.1    43   10.2   299    16.3   974.4    0.00 
 127   13:40   0.87   82.5    43    9.5   291    16.8   974.3    0.00 
 127   13:50   0.85   82.3    44    9.2   297    16.8   974.2    0.00 
 127   14:00   0.83   82.1    44   10.0   289    20.5   974.1    0.00 
 127   14:10   0.81   79.8    46   12.9   289    22.2   974.1    0.00 
 127   14:20   0.80   79.0    48   14.3   294    24.9   974.1    0.00 
 127   14:30   0.78   79.0    48   11.4   287    18.3   974.0    0.00 
 127   14:40   0.75   78.3    48   13.7   291    22.7   973.9    0.00 
 127   14:50   0.73   77.8    49   12.3   286    19.6   973.9    0.00 
 127   15:00   0.70   78.0    48   13.9   293    22.1   973.8    0.00 
 127   15:10   0.68   78.5    48   13.0   298    22.1   973.7    0.00 

Return to Sedgwick Reserve graphs page.


Western Regional Climate Center,wrcc@dri.edu